createdAt,value
2022-11-17T00:00:58.287Z,0
2022-11-17T00:02:38.059Z,0
2022-11-17T00:04:17.813Z,0
2022-11-17T00:05:57.622Z,0
2022-11-17T00:07:37.362Z,0
2022-11-17T00:09:17.131Z,0
2022-11-17T00:10:56.894Z,0
2022-11-17T00:12:36.668Z,0
2022-11-17T00:14:16.436Z,0
2022-11-17T00:15:56.263Z,0
2022-11-17T00:19:15.847Z,0
2022-11-17T00:20:55.505Z,0
2022-11-17T00:22:35.309Z,0
2022-11-17T00:24:15.029Z,0
2022-11-17T00:25:54.818Z,0
2022-11-17T00:27:34.589Z,0
2022-11-17T00:29:14.340Z,0
2022-11-17T00:30:54.114Z,0
2022-11-17T00:34:13.646Z,0
2022-11-17T00:35:53.512Z,0
2022-11-17T00:39:12.966Z,0
2022-11-17T00:40:52.706Z,0
2022-11-17T00:42:32.479Z,0
2022-11-17T00:44:12.265Z,0
2022-11-17T00:45:52.011Z,0
2022-11-17T00:47:31.776Z,0
2022-11-17T00:49:11.568Z,0
2022-11-17T00:50:51.339Z,0
2022-11-17T00:52:31.076Z,0
2022-11-17T00:54:10.909Z,0
2022-11-17T00:55:50.599Z,0
2022-11-17T00:57:30.416Z,0
2022-11-17T00:59:10.171Z,0
2022-11-17T01:00:49.906Z,0
2022-11-17T01:02:29.671Z,0
2022-11-17T01:04:09.453Z,0
2022-11-17T01:05:49.213Z,0
2022-11-17T01:07:28.994Z,0
2022-11-17T01:09:08.827Z,0
2022-11-17T01:10:48.525Z,0
2022-11-17T01:12:28.286Z,0
2022-11-17T01:14:08.044Z,0
2022-11-17T01:15:47.813Z,0
2022-11-17T01:17:27.593Z,0
2022-11-17T01:19:07.355Z,0
2022-11-17T01:20:47.121Z,0
2022-11-17T01:22:26.887Z,0
2022-11-17T01:24:06.657Z,0
2022-11-17T01:25:46.438Z,0
2022-11-17T01:27:26.185Z,0
2022-11-17T01:29:05.951Z,0
2022-11-17T01:30:45.727Z,0
2022-11-17T01:32:25.535Z,0
2022-11-17T01:34:05.331Z,0
2022-11-17T01:35:45.021Z,0
2022-11-17T01:37:24.845Z,0
2022-11-17T01:39:04.568Z,0
2022-11-17T01:40:44.317Z,0
2022-11-17T01:42:24.092Z,0
2022-11-17T01:44:03.863Z,0
2022-11-17T01:45:43.623Z,0
2022-11-17T01:47:23.385Z,0
2022-11-17T01:49:03.156Z,0
2022-11-17T01:50:42.928Z,0
2022-11-17T01:52:22.694Z,0
2022-11-17T01:54:02.461Z,0
2022-11-17T01:55:42.241Z,0
2022-11-17T01:57:21.991Z,0
2022-11-17T01:59:01.760Z,0
2022-11-17T02:00:41.545Z,0
2022-11-17T02:02:21.307Z,0
2022-11-17T02:04:01.070Z,0
2022-11-17T02:05:40.822Z,0
2022-11-17T02:07:20.596Z,0
2022-11-17T02:09:00.363Z,0
2022-11-17T02:10:40.161Z,0
2022-11-17T02:12:19.913Z,0
2022-11-17T02:13:59.673Z,0
2022-11-17T02:15:39.431Z,0
2022-11-17T02:17:19.210Z,0
2022-11-17T02:20:38.764Z,0
2022-11-17T02:22:18.525Z,0
2022-11-17T02:23:58.272Z,0
2022-11-17T02:25:38.053Z,0
2022-11-17T02:27:17.797Z,0
2022-11-17T02:28:57.589Z,0
2022-11-17T02:30:37.360Z,0
2022-11-17T02:32:17.180Z,0
2022-11-17T02:33:56.876Z,0
2022-11-17T02:35:36.702Z,0
2022-11-17T02:37:16.490Z,0
2022-11-17T02:38:56.187Z,0
2022-11-17T02:40:35.948Z,0
2022-11-17T02:42:15.717Z,0
2022-11-17T02:43:55.474Z,0
2022-11-17T02:45:35.242Z,0
2022-11-17T02:47:15.004Z,0
2022-11-17T02:48:54.772Z,0
2022-11-17T02:50:34.567Z,0
2022-11-17T02:52:14.327Z,0
2022-11-17T02:53:54.102Z,0
2022-11-17T02:55:33.845Z,0
2022-11-17T02:57:13.605Z,0
2022-11-17T02:58:53.495Z,0
2022-11-17T03:00:33.223Z,0
2022-11-17T03:02:12.923Z,0
2022-11-17T03:03:52.693Z,0
2022-11-17T03:05:32.487Z,0
2022-11-17T03:07:12.221Z,0
2022-11-17T03:08:51.978Z,0
2022-11-17T03:10:31.751Z,0
2022-11-17T03:12:11.522Z,0
2022-11-17T03:13:51.362Z,0
2022-11-17T03:15:31.063Z,0
2022-11-17T03:17:10.831Z,0
2022-11-17T03:18:50.620Z,0
2022-11-17T03:20:30.387Z,0
2022-11-17T03:22:10.136Z,0
2022-11-17T03:23:49.883Z,0
2022-11-17T03:25:29.653Z,0
2022-11-17T03:27:09.507Z,0
2022-11-17T03:28:49.204Z,0
2022-11-17T03:30:28.955Z,0
2022-11-17T03:32:08.727Z,0
2022-11-17T03:33:48.569Z,0
2022-11-17T03:35:28.312Z,0
2022-11-17T03:38:47.786Z,0
2022-11-17T03:40:27.579Z,0
2022-11-17T03:42:07.336Z,0
2022-11-17T03:43:47.151Z,0
2022-11-17T03:45:26.866Z,0
2022-11-17T03:47:06.671Z,0
2022-11-17T03:48:46.441Z,0
2022-11-17T03:50:26.174Z,0
2022-11-17T03:52:05.940Z,0
2022-11-17T03:53:45.695Z,0
2022-11-17T03:55:25.464Z,0
2022-11-17T03:57:05.226Z,0
2022-11-17T03:58:45.010Z,0
2022-11-17T04:00:24.819Z,0
2022-11-17T04:02:04.525Z,0
2022-11-17T04:03:44.323Z,0
2022-11-17T04:05:24.131Z,0
2022-11-17T04:07:03.819Z,0
2022-11-17T04:08:43.605Z,0
2022-11-17T04:10:23.424Z,0
2022-11-17T04:12:03.132Z,0
2022-11-17T04:13:42.883Z,0
2022-11-17T04:15:22.723Z,0
2022-11-17T04:17:02.423Z,0
2022-11-17T04:18:42.195Z,0
2022-11-17T04:20:21.960Z,0
2022-11-17T04:22:01.755Z,0
2022-11-17T04:23:41.484Z,0
2022-11-17T04:25:21.333Z,0
2022-11-17T04:27:01.053Z,0
2022-11-17T04:28:40.804Z,0
2022-11-17T04:30:20.582Z,0
2022-11-17T04:32:00.389Z,0
2022-11-17T04:33:40.091Z,0
2022-11-17T04:35:19.867Z,0
2022-11-17T04:36:59.635Z,0
2022-11-17T04:38:39.398Z,0
2022-11-17T04:40:19.158Z,0
2022-11-17T04:41:58.972Z,0
2022-11-17T04:43:38.704Z,0
2022-11-17T04:45:18.466Z,0
2022-11-17T04:46:58.271Z,0
2022-11-17T04:48:37.993Z,0
2022-11-17T04:50:17.783Z,0
2022-11-17T04:51:57.531Z,0
2022-11-17T04:53:37.335Z,0
2022-11-17T04:55:17.074Z,0
2022-11-17T04:56:56.834Z,0
2022-11-17T04:58:36.615Z,0
2022-11-17T05:00:16.384Z,0
2022-11-17T05:01:56.197Z,0
2022-11-17T05:03:35.907Z,0
2022-11-17T05:05:15.677Z,0
2022-11-17T05:06:55.438Z,0
2022-11-17T05:08:35.217Z,0
2022-11-17T05:10:15.024Z,0
2022-11-17T05:11:54.844Z,0
2022-11-17T05:13:34.513Z,0
2022-11-17T05:15:14.291Z,0
2022-11-17T05:16:54.036Z,0
2022-11-17T05:18:33.808Z,0
2022-11-17T05:20:13.577Z,0
2022-11-17T05:21:53.387Z,0
2022-11-17T05:23:33.118Z,0
2022-11-17T05:25:12.946Z,0
2022-11-17T05:26:52.655Z,0
2022-11-17T05:28:32.416Z,0
2022-11-17T05:30:12.194Z,0
2022-11-17T05:31:51.961Z,0
2022-11-17T05:33:31.739Z,0
2022-11-17T05:35:11.488Z,0
2022-11-17T05:36:51.263Z,0
2022-11-17T05:38:31.015Z,0
2022-11-17T05:40:10.811Z,0
2022-11-17T05:41:50.567Z,0
2022-11-17T05:43:30.314Z,0
2022-11-17T05:45:10.079Z,0
2022-11-17T05:46:49.861Z,0
2022-11-17T05:48:29.633Z,0
2022-11-17T05:50:09.392Z,0
2022-11-17T05:51:49.158Z,0
2022-11-17T05:53:28.910Z,0
2022-11-17T05:55:08.723Z,0
2022-11-17T05:56:48.456Z,0
2022-11-17T05:58:28.216Z,0
2022-11-17T06:00:08.009Z,0
2022-11-17T06:01:47.761Z,0
2022-11-17T06:03:27.513Z,0
2022-11-17T06:05:07.326Z,0
2022-11-17T06:06:47.091Z,0
2022-11-17T06:08:26.831Z,0
2022-11-17T06:10:06.652Z,0
2022-11-17T06:11:46.445Z,0
2022-11-17T06:13:26.128Z,0
2022-11-17T06:15:05.908Z,0
2022-11-17T06:16:45.662Z,0
2022-11-17T06:18:25.428Z,0
2022-11-17T06:20:05.199Z,0
2022-11-17T06:21:44.966Z,0
2022-11-17T06:23:24.721Z,0
2022-11-17T06:25:04.499Z,0
2022-11-17T06:26:44.251Z,0
2022-11-17T06:28:24.062Z,0
2022-11-17T06:30:03.785Z,0
2022-11-17T06:31:43.556Z,0
2022-11-17T06:33:23.323Z,0
2022-11-17T06:35:03.100Z,0
2022-11-17T06:36:42.878Z,0
2022-11-17T06:38:22.705Z,0
2022-11-17T06:40:02.421Z,0
2022-11-17T06:41:42.233Z,0
2022-11-17T06:43:21.931Z,0
2022-11-17T06:45:01.746Z,0
2022-11-17T06:46:41.465Z,0
2022-11-17T06:48:21.237Z,0
2022-11-17T06:50:00.999Z,0
2022-11-17T06:51:40.767Z,0
2022-11-17T06:53:20.538Z,0
2022-11-17T06:55:00.468Z,0
2022-11-17T06:56:40.078Z,0.51
2022-11-17T06:58:19.856Z,0.51
2022-11-17T06:59:59.654Z,0.25
2022-11-17T07:01:39.403Z,0.76
2022-11-17T07:03:19.143Z,1.78
2022-11-17T07:04:58.939Z,2.04
2022-11-17T07:06:38.679Z,1.02
2022-11-17T07:08:18.441Z,1.28
2022-11-17T07:09:58.233Z,3.07
2022-11-17T07:11:37.976Z,2.04
2022-11-17T07:13:17.804Z,1.02
2022-11-17T07:14:57.537Z,1.53
2022-11-17T07:16:37.369Z,2.56
2022-11-17T07:18:17.117Z,2.82
2022-11-17T07:19:56.798Z,3.06
2022-11-17T07:21:36.620Z,2.82
2022-11-17T07:23:16.343Z,2.56
2022-11-17T07:24:56.149Z,1.79
2022-11-17T07:26:35.953Z,2.05
2022-11-17T07:28:15.629Z,3.59
2022-11-17T07:29:55.512Z,3.08
2022-11-17T07:31:35.168Z,3.59
2022-11-17T07:33:15.018Z,3.08
2022-11-17T07:34:54.716Z,3.34
2022-11-17T07:36:34.602Z,4.37
2022-11-17T07:38:14.237Z,3.6
2022-11-17T07:39:54.005Z,2.57
2022-11-17T07:41:33.934Z,3.86
2022-11-17T07:43:13.610Z,4.63
2022-11-17T07:44:53.316Z,4.61
2022-11-17T07:46:33.180Z,4.38
2022-11-17T07:48:12.889Z,4.12
2022-11-17T07:51:32.423Z,4.39
2022-11-17T07:53:12.166Z,4.9
2022-11-17T07:54:51.936Z,5.68
2022-11-17T07:56:31.715Z,4.65
2022-11-17T07:58:11.495Z,4.39
2022-11-17T07:59:51.303Z,5.69
2022-11-17T08:01:31.028Z,4.91
2022-11-17T08:03:10.939Z,4.91
2022-11-17T08:04:50.567Z,5.95
2022-11-17T08:06:30.333Z,5.18
2022-11-17T08:08:10.212Z,6.22
2022-11-17T08:09:49.953Z,5.7
2022-11-17T08:11:29.698Z,5.7
2022-11-17T08:13:09.413Z,6.75
2022-11-17T08:14:49.201Z,7.28
2022-11-17T08:16:28.958Z,6.76
2022-11-17T08:18:08.735Z,6.76
2022-11-17T08:19:48.611Z,12.28
2022-11-17T08:21:28.265Z,7.04
2022-11-17T08:23:08.036Z,6.26
2022-11-17T08:24:47.798Z,6.78
2022-11-17T08:26:27.641Z,6.79
2022-11-17T08:29:47.127Z,6
2022-11-17T08:31:26.877Z,6.53
2022-11-17T08:33:06.653Z,6.79
2022-11-17T08:34:46.420Z,7.59
2022-11-17T08:36:26.191Z,7.58
2022-11-17T08:38:06.005Z,8.64
2022-11-17T08:39:45.739Z,8.39
2022-11-17T08:41:25.503Z,8.93
2022-11-17T08:44:45.101Z,8.14
2022-11-17T08:46:24.812Z,8.68
2022-11-17T08:48:04.587Z,9.47
2022-11-17T08:49:44.424Z,9.22
2022-11-17T08:51:24.136Z,10.29
2022-11-17T08:53:03.964Z,9.77
2022-11-17T08:56:23.432Z,9.79
2022-11-17T08:58:03.207Z,9.8
2022-11-17T08:59:42.985Z,9.54
2022-11-17T09:01:22.871Z,9.27
2022-11-17T09:03:02.556Z,10.87
2022-11-17T09:04:42.426Z,10.35
2022-11-17T09:06:22.063Z,11.97
2022-11-17T09:08:01.804Z,11.45
2022-11-17T09:09:41.784Z,11.73
2022-11-17T09:11:21.363Z,10.93
2022-11-17T09:13:01.132Z,10.94
2022-11-17T09:14:40.913Z,10.41
2022-11-17T09:16:20.667Z,10.14
2022-11-17T09:18:00.448Z,8.55
2022-11-17T09:19:40.224Z,13.65
2022-11-17T09:21:19.987Z,15.59
2022-11-17T09:22:59.753Z,8.03
2022-11-17T09:24:39.537Z,8.3
2022-11-17T09:26:19.290Z,7.76
2022-11-17T09:27:59.079Z,6.41
2022-11-17T09:29:38.835Z,8.56
2022-11-17T09:31:18.604Z,8.03
2022-11-17T09:32:58.525Z,8.83
2022-11-17T09:34:38.194Z,9.38
2022-11-17T09:36:17.952Z,10.18
2022-11-17T09:37:57.685Z,8.04
2022-11-17T09:39:37.455Z,6.7
2022-11-17T09:41:17.238Z,6.16
2022-11-17T09:42:57.009Z,5.08
2022-11-17T09:44:36.770Z,4.81
2022-11-17T09:46:16.606Z,4.27
2022-11-17T09:47:56.305Z,4.54
2022-11-17T09:49:36.090Z,4.8
2022-11-17T09:51:15.856Z,5.34
2022-11-17T09:52:55.617Z,4.8
2022-11-17T09:54:35.513Z,6.11
2022-11-17T09:56:15.309Z,4.8
2022-11-17T09:57:55.132Z,5.6
2022-11-17T09:59:34.708Z,6.41
2022-11-17T10:01:14.473Z,7.49
2022-11-17T10:02:54.252Z,7.49
2022-11-17T10:04:34.020Z,6.96
2022-11-17T10:06:13.789Z,7.22
2022-11-17T10:07:53.557Z,8.3
2022-11-17T10:09:33.324Z,6.96
2022-11-17T10:11:13.096Z,7.5
2022-11-17T10:12:52.858Z,7.49
2022-11-17T10:14:32.642Z,7.5
2022-11-17T10:16:12.586Z,7.76
2022-11-17T10:17:52.166Z,8.04
2022-11-17T10:19:32.154Z,8.58
2022-11-17T10:21:11.723Z,8.59
2022-11-17T10:22:51.486Z,9.95
2022-11-17T10:24:31.259Z,7.25
2022-11-17T10:26:11.026Z,6.44
2022-11-17T10:27:50.794Z,6.17
2022-11-17T10:29:30.554Z,7.24
2022-11-17T10:31:10.496Z,7.24
2022-11-17T10:32:50.285Z,7.24
2022-11-17T10:34:29.882Z,6.98
2022-11-17T10:36:09.649Z,6.98
2022-11-17T10:37:49.419Z,6.98
2022-11-17T10:39:29.174Z,6.98
2022-11-17T10:41:08.961Z,7.24
2022-11-17T10:42:48.731Z,6.98
2022-11-17T10:44:28.560Z,7.52
2022-11-17T10:46:08.389Z,5.89
2022-11-17T10:47:48.056Z,5.63
2022-11-17T10:49:27.804Z,6.71
2022-11-17T10:51:07.600Z,6.17
2022-11-17T10:52:47.341Z,6.71
2022-11-17T10:54:27.108Z,6.44
2022-11-17T10:56:06.882Z,6.71
2022-11-17T10:57:46.665Z,6.17
2022-11-17T10:59:26.409Z,6.71
2022-11-17T11:01:06.198Z,6.71
2022-11-17T11:02:45.982Z,6.17
2022-11-17T11:04:25.730Z,6.17
2022-11-17T11:06:05.515Z,6.71
2022-11-17T11:07:45.267Z,8.06
2022-11-17T11:09:25.033Z,6.98
2022-11-17T11:11:04.820Z,7.79
2022-11-17T11:12:44.579Z,5.64
2022-11-17T11:14:24.352Z,8.6
2022-11-17T11:16:04.127Z,8.6
2022-11-17T11:17:43.910Z,9.14
2022-11-17T11:19:23.667Z,8.62
2022-11-17T11:22:43.201Z,14.89
2022-11-17T11:24:22.987Z,8.91
2022-11-17T11:26:02.740Z,8.1
2022-11-17T11:27:42.511Z,8.64
2022-11-17T11:29:22.281Z,7.01
2022-11-17T11:31:02.063Z,8.09
2022-11-17T11:32:41.834Z,8.63
2022-11-17T11:34:21.599Z,8.64
2022-11-17T11:36:01.389Z,7.28
2022-11-17T11:37:41.152Z,8.35
2022-11-17T11:39:20.907Z,7.56
2022-11-17T11:41:00.690Z,7.56
2022-11-17T11:42:40.452Z,7.28
2022-11-17T11:44:20.223Z,8.1
2022-11-17T11:45:59.974Z,7.83
2022-11-17T11:47:39.797Z,7.82
2022-11-17T11:49:19.526Z,8.37
2022-11-17T11:50:59.309Z,9.45
2022-11-17T11:52:39.100Z,8.37
2022-11-17T11:54:18.853Z,7.83
2022-11-17T11:55:58.598Z,8.64
2022-11-17T11:57:38.389Z,7.83
2022-11-17T11:59:18.152Z,7.83
2022-11-17T12:00:57.918Z,8.1
2022-11-17T12:02:37.698Z,8.91
2022-11-17T12:04:17.455Z,8.33
2022-11-17T12:05:57.237Z,8.38
2022-11-17T12:07:36.992Z,8.92
2022-11-17T12:09:16.768Z,8.64
2022-11-17T12:10:56.541Z,8.38
2022-11-17T12:12:36.316Z,7.56
2022-11-17T12:14:16.070Z,8.1
2022-11-17T12:17:35.625Z,7.02
2022-11-17T12:19:15.383Z,8.64
2022-11-17T12:20:55.159Z,7.56
2022-11-17T12:22:34.915Z,0
2022-11-17T12:24:14.702Z,12.21
2022-11-17T12:25:54.474Z,7.57
2022-11-17T12:27:34.243Z,7.57
2022-11-17T12:29:13.997Z,7.57
2022-11-17T12:30:53.783Z,7.02
2022-11-17T12:32:33.541Z,6.48
2022-11-17T12:34:13.326Z,6.48
2022-11-17T12:39:12.624Z,5.66
2022-11-17T12:40:52.412Z,5.11
2022-11-17T12:42:32.171Z,4.84
2022-11-17T12:44:11.943Z,4.84
2022-11-17T12:45:51.705Z,4.57
2022-11-17T12:47:31.486Z,4.57
2022-11-17T12:49:11.265Z,4.84
2022-11-17T12:50:51.013Z,4.83
2022-11-17T12:52:30.796Z,5.64
2022-11-17T12:54:10.556Z,5.37
2022-11-17T12:55:50.340Z,5.35
2022-11-17T12:57:30.110Z,5.1
2022-11-17T12:59:09.874Z,4.83
2022-11-17T13:00:49.640Z,5.37
2022-11-17T13:02:29.421Z,4.83
2022-11-17T13:04:09.188Z,5.1
2022-11-17T13:05:48.967Z,4.83
2022-11-17T13:07:28.730Z,4.83
2022-11-17T13:09:08.500Z,4.29
2022-11-17T13:10:48.323Z,4.29
2022-11-17T13:12:28.217Z,3.75
2022-11-17T13:14:07.901Z,3.75
2022-11-17T13:15:47.566Z,3.75
2022-11-17T13:17:27.393Z,3.48
2022-11-17T13:19:07.192Z,3.48
2022-11-17T13:20:47.041Z,4.28
2022-11-17T13:22:26.823Z,3.21
2022-11-17T13:24:06.577Z,4.55
2022-11-17T13:25:46.397Z,4.01
2022-11-17T13:27:25.963Z,2.67
2022-11-17T13:29:05.945Z,3.47
2022-11-17T13:30:45.666Z,2.67
2022-11-17T13:32:25.433Z,2.94
2022-11-17T13:34:05.045Z,3.47
2022-11-17T13:39:04.522Z,2.93
2022-11-17T13:40:44.310Z,2.4
2022-11-17T13:42:24.039Z,2.13
2022-11-17T13:44:03.670Z,2.4
2022-11-17T13:45:43.577Z,2.39
2022-11-17T13:47:23.191Z,0.52
2022-11-17T13:49:03.128Z,2.13
2022-11-17T13:50:42.790Z,2.11
2022-11-17T13:52:22.591Z,1.86
2022-11-17T13:54:02.320Z,1.59
2022-11-17T13:55:42.126Z,1.05
2022-11-17T13:57:21.819Z,0.79
2022-11-17T13:59:01.631Z,1.32
2022-11-17T14:00:41.385Z,1.59
2022-11-17T14:02:21.243Z,1.05
2022-11-17T14:04:00.959Z,1.05
2022-11-17T14:05:40.704Z,1.05
2022-11-17T14:07:20.444Z,0.79
2022-11-17T14:09:00.202Z,1.59
2022-11-17T14:10:39.953Z,0.52
2022-11-17T14:12:19.738Z,1.85
2022-11-17T14:13:59.584Z,1.32
2022-11-17T14:15:39.375Z,2.1
2022-11-17T14:17:19.125Z,1.58
2022-11-17T14:18:58.806Z,2.1
2022-11-17T14:20:38.579Z,1.32
2022-11-17T14:22:18.361Z,1.85
2022-11-17T14:23:58.131Z,0.79
2022-11-17T14:25:37.899Z,1.58
2022-11-17T14:27:17.757Z,0.79
2022-11-17T14:28:57.438Z,1.04
2022-11-17T14:30:37.393Z,0.79
2022-11-17T14:32:17.158Z,0.52
2022-11-17T14:33:56.811Z,0.52
2022-11-17T14:37:16.273Z,0
2022-11-17T14:38:56.195Z,1.83
2022-11-17T14:40:35.912Z,0
2022-11-17T14:42:15.682Z,0
2022-11-17T14:43:55.513Z,0.26
2022-11-17T14:45:35.127Z,0
2022-11-17T14:47:14.938Z,0
2022-11-17T14:48:54.801Z,0
2022-11-17T14:50:34.427Z,0
2022-11-17T14:52:14.203Z,0
2022-11-17T14:53:54.091Z,0
2022-11-17T14:55:33.746Z,0
2022-11-17T14:57:13.576Z,0
2022-11-17T14:58:53.328Z,0
2022-11-17T15:00:33.248Z,0
2022-11-17T15:02:12.919Z,0
2022-11-17T15:03:52.750Z,0
2022-11-17T15:05:32.476Z,0
2022-11-17T15:07:12.223Z,0
2022-11-17T15:08:52.084Z,0
2022-11-17T15:10:31.795Z,0
2022-11-17T15:12:11.615Z,0
2022-11-17T15:13:51.346Z,0
2022-11-17T15:15:31.107Z,0
2022-11-17T15:17:10.857Z,0
2022-11-17T15:18:50.616Z,0
2022-11-17T15:20:30.378Z,0
2022-11-17T15:22:10.070Z,0
2022-11-17T15:25:29.572Z,0
2022-11-17T15:27:09.298Z,0
2022-11-17T15:28:49.107Z,0
2022-11-17T15:30:28.951Z,0
2022-11-17T15:32:08.676Z,0
2022-11-17T15:33:48.376Z,0
2022-11-17T15:35:28.142Z,0
2022-11-17T15:37:07.931Z,0
2022-11-17T15:38:47.791Z,0
2022-11-17T15:40:27.448Z,0
2022-11-17T15:42:07.261Z,0
2022-11-17T15:43:47.069Z,0
2022-11-17T15:45:26.872Z,0
2022-11-17T15:47:06.499Z,0
2022-11-17T15:48:46.376Z,0
2022-11-17T15:52:05.924Z,0
2022-11-17T15:53:45.612Z,0
2022-11-17T15:55:25.345Z,0
2022-11-17T15:57:05.196Z,0
2022-11-17T15:58:44.934Z,0
2022-11-17T16:02:04.557Z,0
2022-11-17T16:03:44.177Z,0
2022-11-17T16:05:23.968Z,0
2022-11-17T16:07:03.719Z,0
2022-11-17T16:08:43.483Z,0
2022-11-17T16:10:23.419Z,0
2022-11-17T16:12:03.204Z,0
2022-11-17T16:13:42.895Z,0
2022-11-17T16:15:22.606Z,0
2022-11-17T16:17:02.533Z,0
2022-11-17T16:18:42.088Z,0
2022-11-17T16:20:21.902Z,0
2022-11-17T16:22:01.621Z,0
2022-11-17T16:23:41.380Z,0
2022-11-17T16:25:21.237Z,0
2022-11-17T16:27:01.087Z,0
2022-11-17T16:28:40.689Z,0
2022-11-17T16:30:20.458Z,0
2022-11-17T16:32:00.243Z,0
2022-11-17T16:33:39.980Z,0
2022-11-17T16:36:59.636Z,0
2022-11-17T16:38:39.295Z,0
2022-11-17T16:40:19.050Z,0
2022-11-17T16:43:38.587Z,0
2022-11-17T16:45:18.529Z,0
2022-11-17T16:46:58.129Z,0
2022-11-17T16:48:37.892Z,0
2022-11-17T16:50:17.661Z,0
2022-11-17T16:51:57.431Z,0
2022-11-17T16:53:37.246Z,0
2022-11-17T16:55:17.032Z,0
2022-11-17T16:56:56.725Z,0
2022-11-17T16:58:36.523Z,0
2022-11-17T17:00:16.261Z,0
2022-11-17T17:01:56.022Z,0
2022-11-17T17:03:35.812Z,0
2022-11-17T17:05:15.566Z,0
2022-11-17T17:06:55.393Z,0
2022-11-17T17:08:35.100Z,0
2022-11-17T17:10:14.861Z,0
2022-11-17T17:11:54.640Z,0
2022-11-17T17:13:34.428Z,0
2022-11-17T17:15:14.197Z,0
2022-11-17T17:16:53.973Z,0
2022-11-17T17:18:33.696Z,0
2022-11-17T17:20:13.481Z,0
2022-11-17T17:21:53.236Z,0
2022-11-17T17:23:33.012Z,0
2022-11-17T17:25:12.887Z,0
2022-11-17T17:26:52.537Z,0
2022-11-17T17:28:32.308Z,0
2022-11-17T17:30:12.071Z,0
2022-11-17T17:31:51.963Z,0
2022-11-17T17:33:31.608Z,0
2022-11-17T17:35:11.392Z,0
2022-11-17T17:36:51.142Z,0
2022-11-17T17:38:30.914Z,0
2022-11-17T17:40:10.683Z,0
2022-11-17T17:41:50.526Z,0
2022-11-17T17:43:30.211Z,0
2022-11-17T17:45:09.980Z,0
2022-11-17T17:46:49.810Z,0
2022-11-17T17:48:29.525Z,0
2022-11-17T17:50:09.275Z,0
2022-11-17T17:51:49.060Z,0
2022-11-17T17:53:28.813Z,0
2022-11-17T17:55:08.584Z,0
2022-11-17T17:56:48.353Z,0
2022-11-17T17:58:28.122Z,0
2022-11-17T18:00:07.901Z,0
2022-11-17T18:01:47.648Z,0
2022-11-17T18:03:27.428Z,0
2022-11-17T18:05:07.204Z,0
2022-11-17T18:06:46.967Z,0
2022-11-17T18:08:26.734Z,0
2022-11-17T18:10:06.494Z,0
2022-11-17T18:11:46.306Z,0
2022-11-17T18:13:26.021Z,0
2022-11-17T18:16:45.560Z,0
2022-11-17T18:18:25.330Z,0
2022-11-17T18:20:05.118Z,0
2022-11-17T18:21:44.855Z,0
2022-11-17T18:23:24.660Z,0
2022-11-17T18:26:44.268Z,0
2022-11-17T18:28:23.939Z,0
2022-11-17T18:30:03.693Z,0
2022-11-17T18:31:43.504Z,0
2022-11-17T18:33:23.227Z,0
2022-11-17T18:35:03.032Z,0
2022-11-17T18:36:42.763Z,0
2022-11-17T18:38:22.536Z,0
2022-11-17T18:40:02.302Z,0
2022-11-17T18:41:42.068Z,0
2022-11-17T18:43:21.829Z,0
2022-11-17T18:45:01.596Z,0
2022-11-17T18:46:41.441Z,0
2022-11-17T18:48:21.140Z,0
2022-11-17T18:50:00.963Z,0
2022-11-17T18:51:40.672Z,0
2022-11-17T18:53:20.451Z,0
2022-11-17T18:55:00.276Z,0
2022-11-17T18:56:40.010Z,0
2022-11-17T18:58:19.743Z,0
2022-11-17T18:59:59.501Z,0
2022-11-17T19:01:39.295Z,0
2022-11-17T19:03:19.030Z,0
2022-11-17T19:04:58.850Z,0
2022-11-17T19:06:38.620Z,0
2022-11-17T19:08:18.336Z,0
2022-11-17T19:09:58.106Z,0
2022-11-17T19:11:37.877Z,0
2022-11-17T19:13:17.723Z,0
2022-11-17T19:14:57.524Z,0
2022-11-17T19:16:37.219Z,0
2022-11-17T19:18:16.940Z,0
2022-11-17T19:19:56.719Z,0
2022-11-17T19:21:36.476Z,0
2022-11-17T19:23:16.266Z,0
2022-11-17T19:24:56.006Z,0
2022-11-17T19:26:35.917Z,0
2022-11-17T19:28:15.557Z,0
2022-11-17T19:29:55.311Z,0
2022-11-17T19:31:35.104Z,0
2022-11-17T19:33:14.844Z,0
2022-11-17T19:34:54.732Z,0
2022-11-17T19:36:34.504Z,0
2022-11-17T19:38:14.172Z,0
2022-11-17T19:39:53.957Z,0
2022-11-17T19:41:33.714Z,0
2022-11-17T19:43:13.468Z,0
2022-11-17T19:44:53.382Z,0
2022-11-17T19:46:33.050Z,0
2022-11-17T19:48:12.748Z,0
2022-11-17T19:49:52.561Z,0
2022-11-17T19:51:32.295Z,0
2022-11-17T19:53:12.141Z,0
2022-11-17T19:54:51.827Z,0
2022-11-17T19:56:31.592Z,0
2022-11-17T19:58:11.351Z,0
2022-11-17T19:59:51.148Z,0
2022-11-17T20:03:10.667Z,0
2022-11-17T20:04:50.422Z,0
2022-11-17T20:06:30.318Z,0
2022-11-17T20:08:09.967Z,0
2022-11-17T20:09:49.874Z,0
2022-11-17T20:11:29.608Z,0
2022-11-17T20:13:09.280Z,0
2022-11-17T20:14:49.050Z,0
2022-11-17T20:16:28.834Z,0
2022-11-17T20:18:08.572Z,0
2022-11-17T20:19:48.346Z,0
2022-11-17T20:21:28.100Z,0
2022-11-17T20:23:07.868Z,0
2022-11-17T20:24:47.630Z,0
2022-11-17T20:26:27.435Z,0
2022-11-17T20:28:07.194Z,0
2022-11-17T20:29:46.937Z,0
2022-11-17T20:31:26.729Z,0
2022-11-17T20:33:06.518Z,0
2022-11-17T20:34:46.234Z,0
2022-11-17T20:36:26.066Z,0
2022-11-17T20:38:05.781Z,0
2022-11-17T20:39:45.545Z,0
2022-11-17T20:41:25.305Z,0
2022-11-17T20:43:05.079Z,0
2022-11-17T20:44:44.858Z,0
2022-11-17T20:46:24.624Z,0
2022-11-17T20:48:04.372Z,0
2022-11-17T20:49:44.167Z,0
2022-11-17T20:53:03.680Z,0
2022-11-17T20:54:43.452Z,0
2022-11-17T20:56:23.221Z,0
2022-11-17T20:58:02.986Z,0
2022-11-17T20:59:42.757Z,0
2022-11-17T21:01:22.533Z,0
2022-11-17T21:03:02.326Z,0
2022-11-17T21:04:42.058Z,0
2022-11-17T21:06:21.976Z,0
2022-11-17T21:08:01.667Z,0
2022-11-17T21:09:41.441Z,0
2022-11-17T21:11:21.311Z,0
2022-11-17T21:13:01.016Z,0
2022-11-17T21:14:40.770Z,0
2022-11-17T21:16:20.503Z,0
2022-11-17T21:18:00.226Z,0
2022-11-17T21:19:40.154Z,0
2022-11-17T21:21:19.730Z,0
2022-11-17T21:22:59.631Z,0
2022-11-17T21:24:39.412Z,0
2022-11-17T21:26:19.091Z,0
2022-11-17T21:27:58.808Z,0
2022-11-17T21:29:38.718Z,0
2022-11-17T21:31:18.404Z,0
2022-11-17T21:32:58.106Z,0
2022-11-17T21:34:37.983Z,0
2022-11-17T21:36:17.855Z,0
2022-11-17T21:37:57.433Z,0
2022-11-17T21:39:37.219Z,0
2022-11-17T21:41:17.036Z,0
2022-11-17T21:42:56.693Z,0
2022-11-17T21:44:36.558Z,0
2022-11-17T21:46:16.398Z,0
2022-11-17T21:49:35.756Z,0
2022-11-17T21:51:15.540Z,0
2022-11-17T21:52:55.299Z,0
2022-11-17T21:54:35.128Z,0
2022-11-17T21:56:14.882Z,0
2022-11-17T21:57:54.609Z,0
2022-11-17T21:59:34.362Z,0
2022-11-17T22:01:14.167Z,0
2022-11-17T22:02:53.916Z,0
2022-11-17T22:04:33.678Z,0
2022-11-17T22:06:13.431Z,0
2022-11-17T22:07:53.212Z,0
2022-11-17T22:09:32.968Z,0
2022-11-17T22:11:12.808Z,0
2022-11-17T22:12:52.502Z,0
2022-11-17T22:14:32.331Z,0
2022-11-17T22:16:12.036Z,0
2022-11-17T22:17:51.813Z,0
2022-11-17T22:19:31.586Z,0
2022-11-17T22:21:11.335Z,0
2022-11-17T22:22:51.112Z,0
2022-11-17T22:24:30.900Z,0
2022-11-17T22:26:10.639Z,0
2022-11-17T22:27:50.412Z,0
2022-11-17T22:29:30.172Z,0
2022-11-17T22:31:09.983Z,0
2022-11-17T22:32:49.714Z,0
2022-11-17T22:34:29.498Z,0
2022-11-17T22:36:09.239Z,0
2022-11-17T22:37:49.018Z,0
2022-11-17T22:39:28.786Z,0
2022-11-17T22:41:08.753Z,0
2022-11-17T22:42:48.309Z,0
2022-11-17T22:44:28.074Z,0
2022-11-17T22:46:07.844Z,0
2022-11-17T22:47:47.690Z,0
2022-11-17T22:49:27.387Z,0
2022-11-17T22:51:07.143Z,0
2022-11-17T22:52:46.921Z,0
2022-11-17T22:54:26.697Z,0
2022-11-17T22:56:06.451Z,0
2022-11-17T22:57:46.224Z,0
2022-11-17T22:59:25.991Z,0
2022-11-17T23:01:05.856Z,0
2022-11-17T23:02:45.607Z,0
2022-11-17T23:04:25.373Z,0
2022-11-17T23:06:05.078Z,0
2022-11-17T23:07:44.821Z,0
2022-11-17T23:09:24.642Z,0
2022-11-17T23:11:04.354Z,0
2022-11-17T23:12:44.142Z,0
2022-11-17T23:14:23.904Z,0
2022-11-17T23:16:03.681Z,0
2022-11-17T23:17:43.529Z,0
2022-11-17T23:19:23.225Z,0
2022-11-17T23:21:03.042Z,0
2022-11-17T23:22:42.803Z,0
2022-11-17T23:24:22.517Z,0
2022-11-17T23:26:02.271Z,0
2022-11-17T23:27:42.024Z,0
2022-11-17T23:29:21.810Z,0
2022-11-17T23:31:01.560Z,0
2022-11-17T23:32:41.319Z,0
2022-11-17T23:34:21.117Z,0
2022-11-17T23:36:00.864Z,0
2022-11-17T23:37:40.670Z,0
2022-11-17T23:39:20.414Z,0
2022-11-17T23:41:00.178Z,0
2022-11-17T23:42:39.927Z,0
2022-11-17T23:44:19.708Z,0
2022-11-17T23:45:59.470Z,0
2022-11-17T23:47:39.234Z,0
2022-11-17T23:49:19.009Z,0
2022-11-17T23:50:58.768Z,0
2022-11-17T23:52:38.531Z,0
2022-11-17T23:54:18.313Z,0
2022-11-17T23:55:58.135Z,0
2022-11-17T23:57:37.907Z,0
2022-11-17T23:59:17.609Z,0
